SAS84F EKCH-EDDH
Flight info
| Callsign | SAS84F |
|---|---|
| Flight time | N/A |
| Altitude | 40000 |
| Route | LANGO DCT ABNED L980 LOGAN |
| Aircraft | A359/H-SDE2E3GHIJ3J4J5LM1ORWXY/LB1D1 |
Departure
| Time | N/A |
|---|---|
| Airport | Copenhagen Kastrup Airport (EKCH) |
Arrival
| Time | 2026-04-20 19:45 |
|---|---|
| Airport | Hamburg Helmut Schmidt Airport (EDDH) |
| Time | Latitude | Longitude | Altitude | Speed | Heading |
|---|---|---|---|---|---|
| 2026-04-20 19:23 | 53.65131 | 7.78195 | 10668 ft | 365 kts | 186° |
| 2026-04-20 19:23 | 53.62711 | 7.78184 | 10315 ft | 337 kts | 173° |
| 2026-04-20 19:24 | 53.60413 | 7.78711 | 10236 ft | 332 kts | 163° |
| 2026-04-20 19:24 | 53.58338 | 7.80012 | 10241 ft | 309 kts | 148° |
| 2026-04-20 19:24 | 53.56638 | 7.82232 | 10241 ft | 312 kts | 130° |
| 2026-04-20 19:24 | 53.55462 | 7.85304 | 10239 ft | 313 kts | 110° |
| 2026-04-20 19:25 | 53.54845 | 7.88808 | 10244 ft | 313 kts | 100° |
| 2026-04-20 19:25 | 53.54522 | 7.92403 | 10240 ft | 310 kts | 95° |
| 2026-04-20 19:25 | 53.54348 | 7.96004 | 10244 ft | 304 kts | 92° |
| 2026-04-20 19:25 | 53.54229 | 7.99437 | 10238 ft | 284 kts | 92° |
| 2026-04-20 19:26 | 53.54113 | 8.02652 | 10235 ft | 269 kts | 92° |
| 2026-04-20 19:26 | 53.53978 | 8.05869 | 10254 ft | 292 kts | 93° |
| 2026-04-20 19:26 | 53.53806 | 8.09426 | 10245 ft | 316 kts | 94° |
| 2026-04-20 19:26 | 53.53601 | 8.13156 | 10245 ft | 325 kts | 94° |
| 2026-04-20 19:27 | 53.53373 | 8.16981 | 10249 ft | 333 kts | 95° |
| 2026-04-20 19:27 | 53.53178 | 8.20124 | 10247 ft | 334 kts | 95° |
| 2026-04-20 19:27 | 53.52932 | 8.24000 | 10249 ft | 334 kts | 95° |
| 2026-04-20 19:27 | 53.52682 | 8.27910 | 10249 ft | 335 kts | 95° |
| 2026-04-20 19:28 | 53.52434 | 8.31776 | 10248 ft | 334 kts | 95° |
| 2026-04-20 19:28 | 53.52185 | 8.35675 | 10247 ft | 334 kts | 95° |
| 2026-04-20 19:28 | 53.51940 | 8.39563 | 10246 ft | 334 kts | 95° |
| 2026-04-20 19:28 | 53.51693 | 8.43448 | 10247 ft | 334 kts | 95° |
| 2026-04-20 19:29 | 53.51446 | 8.47318 | 10253 ft | 334 kts | 95° |
| 2026-04-20 19:29 | 53.51197 | 8.51191 | 10250 ft | 334 kts | 95° |
| 2026-04-20 19:29 | 53.50949 | 8.55031 | 10250 ft | 334 kts | 95° |
| 2026-04-20 19:29 | 53.50694 | 8.58958 | 10252 ft | 334 kts | 95° |
| 2026-04-20 19:30 | 53.50441 | 8.62837 | 10251 ft | 334 kts | 95° |
| 2026-04-20 19:30 | 53.50186 | 8.66712 | 10251 ft | 334 kts | 95° |
| 2026-04-20 19:30 | 53.49929 | 8.70614 | 10252 ft | 334 kts | 95° |
| 2026-04-20 19:30 | 53.49672 | 8.74471 | 10250 ft | 334 kts | 95° |
| 2026-04-20 19:31 | 53.49413 | 8.78348 | 10249 ft | 334 kts | 95° |
| 2026-04-20 19:31 | 53.49155 | 8.82189 | 10252 ft | 334 kts | 95° |
| 2026-04-20 19:31 | 53.48893 | 8.86081 | 10248 ft | 334 kts | 95° |
| 2026-04-20 19:31 | 53.48632 | 8.89950 | 10246 ft | 334 kts | 95° |
| 2026-04-20 19:32 | 53.48368 | 8.93835 | 10247 ft | 334 kts | 95° |
| 2026-04-20 19:32 | 53.48104 | 8.97697 | 10245 ft | 334 kts | 95° |
| 2026-04-20 19:32 | 53.47838 | 9.01588 | 10243 ft | 334 kts | 95° |
| 2026-04-20 19:32 | 53.47577 | 9.05383 | 9876 ft | 325 kts | 95° |
| 2026-04-20 19:33 | 53.47314 | 9.09179 | 8993 ft | 327 kts | 95° |
| 2026-04-20 19:33 | 53.47054 | 9.12934 | 8394 ft | 321 kts | 96° |
| 2026-04-20 19:33 | 53.46795 | 9.16629 | 7770 ft | 316 kts | 96° |
| 2026-04-20 19:33 | 53.46538 | 9.20282 | 7148 ft | 313 kts | 96° |
| 2026-04-20 19:34 | 53.46285 | 9.23873 | 6528 ft | 309 kts | 96° |
| 2026-04-20 19:34 | 53.46034 | 9.27430 | 5868 ft | 306 kts | 96° |
| 2026-04-20 19:34 | 53.45783 | 9.30952 | 5448 ft | 296 kts | 96° |
| 2026-04-20 19:34 | 53.45593 | 9.34313 | 5009 ft | 288 kts | 91° |
| 2026-04-20 19:35 | 53.45672 | 9.37637 | 4538 ft | 281 kts | 84° |
| 2026-04-20 19:35 | 53.45849 | 9.40839 | 4296 ft | 268 kts | 84° |
| 2026-04-20 19:35 | 53.46027 | 9.43888 | 4088 ft | 256 kts | 84° |
| 2026-04-20 19:35 | 53.46201 | 9.46758 | 3858 ft | 240 kts | 84° |
| 2026-04-20 19:36 | 53.46365 | 9.49454 | 3568 ft | 222 kts | 84° |
| 2026-04-20 19:36 | 53.46514 | 9.51918 | 3256 ft | 208 kts | 84° |
| 2026-04-20 19:36 | 53.46661 | 9.54273 | 3007 ft | 192 kts | 83° |
| 2026-04-20 19:36 | 53.46793 | 9.56356 | 2972 ft | 170 kts | 84° |
| 2026-04-20 19:37 | 53.46910 | 9.58280 | 2983 ft | 163 kts | 84° |
| 2026-04-20 19:37 | 53.47026 | 9.60174 | 2989 ft | 162 kts | 84° |
| 2026-04-20 19:37 | 53.47142 | 9.62039 | 3006 ft | 160 kts | 84° |
| 2026-04-20 19:37 | 53.47260 | 9.63887 | 2995 ft | 160 kts | 84° |
| 2026-04-20 19:38 | 53.47384 | 9.65750 | 2991 ft | 161 kts | 81° |
| 2026-04-20 19:38 | 53.47794 | 9.67502 | 2991 ft | 162 kts | 64° |
| 2026-04-20 19:38 | 53.48405 | 9.69101 | 2993 ft | 163 kts | 58° |
| 2026-04-20 19:38 | 53.49096 | 9.70633 | 2996 ft | 164 kts | 55° |
| 2026-04-20 19:39 | 53.49803 | 9.72113 | 2994 ft | 164 kts | 54° |
| 2026-04-20 19:39 | 53.50535 | 9.73600 | 2995 ft | 164 kts | 54° |
| 2026-04-20 19:39 | 53.51255 | 9.75050 | 2992 ft | 164 kts | 54° |
| 2026-04-20 19:39 | 53.51985 | 9.76519 | 2990 ft | 164 kts | 54° |
| 2026-04-20 19:40 | 53.52713 | 9.77983 | 2994 ft | 162 kts | 53° |
| 2026-04-20 19:40 | 53.53425 | 9.79417 | 2822 ft | 154 kts | 54° |
| 2026-04-20 19:40 | 53.54071 | 9.80720 | 2603 ft | 141 kts | 54° |
| 2026-04-20 19:40 | 53.54671 | 9.81926 | 2399 ft | 127 kts | 55° |
| 2026-04-20 19:41 | 53.55225 | 9.83046 | 2233 ft | 118 kts | 55° |
| 2026-04-20 19:41 | 53.55723 | 9.84053 | 2079 ft | 112 kts | 55° |
| 2026-04-20 19:41 | 53.56209 | 9.85037 | 1925 ft | 110 kts | 54° |
| 2026-04-20 19:41 | 53.56700 | 9.86027 | 1781 ft | 110 kts | 54° |
| 2026-04-20 19:42 | 53.57190 | 9.87014 | 1608 ft | 110 kts | 53° |
| 2026-04-20 19:42 | 53.57685 | 9.88013 | 1454 ft | 112 kts | 53° |
| 2026-04-20 19:42 | 53.58181 | 9.89018 | 1297 ft | 111 kts | 52° |
| 2026-04-20 19:42 | 53.58682 | 9.90029 | 1126 ft | 113 kts | 52° |
| 2026-04-20 19:43 | 53.59184 | 9.91041 | 964 ft | 113 kts | 52° |
| 2026-04-20 19:43 | 53.59686 | 9.92057 | 797 ft | 114 kts | 51° |
| 2026-04-20 19:43 | 53.60201 | 9.93098 | 661 ft | 117 kts | 50° |
| 2026-04-20 19:43 | 53.60719 | 9.94141 | 478 ft | 116 kts | 51° |
| 2026-04-20 19:44 | 53.61241 | 9.95199 | 310 ft | 118 kts | 52° |
| 2026-04-20 19:44 | 53.61766 | 9.96264 | 87 ft | 124 kts | 50° |
| 2026-04-20 19:44 | 53.62271 | 9.97284 | 45 ft | 101 kts | 50° |
| 2026-04-20 19:44 | 53.62645 | 9.98041 | 46 ft | 79 kts | 50° |
| 2026-04-20 19:45 | 53.62927 | 9.98609 | 43 ft | 64 kts | 50° |
| 2026-04-20 19:45 | 53.63175 | 9.99111 | 46 ft | 46 kts | 50° |
| 2026-04-20 19:45 | 53.63341 | 9.99448 | 48 ft | 28 kts | 50° |
| 2026-04-20 19:45 | 53.63439 | 9.99640 | 45 ft | 21 kts | 48° |
| 2026-04-20 19:46 | 53.63516 | 9.99791 | 46 ft | 16 kts | 50° |
| 2026-04-20 19:46 | 53.63574 | 9.99912 | 45 ft | 0 kts | 58° |
| 2026-04-20 19:46 | 53.63567 | 9.99970 | 48 ft | 8 kts | 117° |
| 2026-04-20 19:47 | 53.63523 | 10.00054 | 48 ft | 11 kts | 140° |
| 2026-04-20 19:47 | 53.63474 | 10.00127 | 46 ft | 1 kts | 137° |
| 2026-04-20 19:47 | 53.63470 | 10.00133 | 45 ft | 0 kts | 139° |
| 2026-04-20 19:47 | 53.63464 | 10.00142 | 46 ft | 3 kts | 139° |
| 2026-04-20 19:48 | 53.63449 | 10.00163 | 46 ft | 0 kts | 140° |
| 2026-04-20 19:48 | 53.63445 | 10.00169 | 46 ft | 0 kts | 140° |
| 2026-04-20 19:48 | 53.63438 | 10.00176 | 48 ft | 3 kts | 146° |
| 2026-04-20 19:48 | 53.63404 | 10.00192 | 47 ft | 7 kts | 170° |
| 2026-04-20 19:49 | 53.63366 | 10.00250 | 49 ft | 9 kts | 114° |
| 2026-04-20 19:49 | 53.63360 | 10.00311 | 47 ft | 4 kts | 92° |
| 2026-04-20 19:49 | 53.63360 | 10.00319 | 47 ft | 0 kts | 92° |